sensor_id;sensor_type;location;lat;lon;timestamp;P1;durP1;ratioP1;P2;durP2;ratioP2
77105;SDS011;66057;54.718;18.426;2024-02-26T00:00:30;7.93;;;3.45;;
77105;SDS011;66057;54.718;18.426;2024-02-26T00:03:16;9.90;;;4.97;;
77105;SDS011;66057;54.718;18.426;2024-02-26T00:05:41;6.45;;;3.92;;
77105;SDS011;66057;54.718;18.426;2024-02-26T00:08:07;7.47;;;4.25;;
77105;SDS011;66057;54.718;18.426;2024-02-26T00:10:33;6.72;;;3.42;;
77105;SDS011;66057;54.718;18.426;2024-02-26T00:12:58;10.38;;;4.72;;
77105;SDS011;66057;54.718;18.426;2024-02-26T00:15:24;11.48;;;5.82;;
77105;SDS011;66057;54.718;18.426;2024-02-26T00:17:50;4.82;;;2.60;;
77105;SDS011;66057;54.718;18.426;2024-02-26T00:20:16;11.07;;;7.00;;
77105;SDS011;66057;54.718;18.426;2024-02-26T00:22:41;7.38;;;4.95;;
77105;SDS011;66057;54.718;18.426;2024-02-26T00:25:07;7.57;;;5.32;;
77105;SDS011;66057;54.718;18.426;2024-02-26T00:27:32;11.10;;;4.20;;
77105;SDS011;66057;54.718;18.426;2024-02-26T00:29:58;9.15;;;5.72;;
77105;SDS011;66057;54.718;18.426;2024-02-26T00:32:23;9.68;;;4.18;;
77105;SDS011;66057;54.718;18.426;2024-02-26T00:34:49;14.40;;;5.40;;
77105;SDS011;66057;54.718;18.426;2024-02-26T00:37:15;10.85;;;5.80;;
77105;SDS011;66057;54.718;18.426;2024-02-26T00:39:41;7.53;;;5.35;;
77105;SDS011;66057;54.718;18.426;2024-02-26T00:42:06;11.15;;;5.78;;
77105;SDS011;66057;54.718;18.426;2024-02-26T00:44:32;8.55;;;5.75;;
77105;SDS011;66057;54.718;18.426;2024-02-26T00:46:58;11.43;;;4.40;;
77105;SDS011;66057;54.718;18.426;2024-02-26T00:49:23;10.73;;;5.78;;
77105;SDS011;66057;54.718;18.426;2024-02-26T00:51:49;13.48;;;5.53;;
77105;SDS011;66057;54.718;18.426;2024-02-26T00:54:15;8.48;;;4.78;;
77105;SDS011;66057;54.718;18.426;2024-02-26T00:56:40;8.30;;;4.60;;
77105;SDS011;66057;54.718;18.426;2024-02-26T00:59:06;8.60;;;4.63;;
77105;SDS011;66057;54.718;18.426;2024-02-26T01:01:31;10.18;;;5.10;;
77105;SDS011;66057;54.718;18.426;2024-02-26T01:03:57;4.78;;;2.92;;
77105;SDS011;66057;54.718;18.426;2024-02-26T01:06:23;6.80;;;3.60;;
77105;SDS011;66057;54.718;18.426;2024-02-26T01:08:48;6.65;;;3.90;;
77105;SDS011;66057;54.718;18.426;2024-02-26T01:11:14;9.02;;;4.45;;
77105;SDS011;66057;54.718;18.426;2024-02-26T01:13:40;8.18;;;5.28;;
77105;SDS011;66057;54.718;18.426;2024-02-26T01:16:05;10.32;;;5.25;;
77105;SDS011;66057;54.718;18.426;2024-02-26T01:18:31;10.30;;;4.78;;
77105;SDS011;66057;54.718;18.426;2024-02-26T01:20:56;6.85;;;4.70;;
77105;SDS011;66057;54.718;18.426;2024-02-26T01:23:22;7.80;;;4.47;;
77105;SDS011;66057;54.718;18.426;2024-02-26T01:25:47;10.98;;;3.78;;
77105;SDS011;66057;54.718;18.426;2024-02-26T01:28:14;7.05;;;3.72;;
77105;SDS011;66057;54.718;18.426;2024-02-26T01:30:39;6.82;;;3.30;;
77105;SDS011;66057;54.718;18.426;2024-02-26T01:33:05;8.45;;;4.60;;
77105;SDS011;66057;54.718;18.426;2024-02-26T01:35:31;6.15;;;4.45;;
77105;SDS011;66057;54.718;18.426;2024-02-26T01:37:57;14.25;;;5.35;;
77105;SDS011;66057;54.718;18.426;2024-02-26T01:40:26;9.60;;;5.30;;
77105;SDS011;66057;54.718;18.426;2024-02-26T01:42:52;9.10;;;4.72;;
77105;SDS011;66057;54.718;18.426;2024-02-26T01:45:17;8.45;;;5.10;;
77105;SDS011;66057;54.718;18.426;2024-02-26T01:47:49;10.68;;;5.18;;
77105;SDS011;66057;54.718;18.426;2024-02-26T01:50:15;9.00;;;4.93;;
77105;SDS011;66057;54.718;18.426;2024-02-26T01:52:40;7.18;;;4.78;;
77105;SDS011;66057;54.718;18.426;2024-02-26T01:55:07;9.88;;;6.30;;
77105;SDS011;66057;54.718;18.426;2024-02-26T01:57:33;9.70;;;5.18;;
77105;SDS011;66057;54.718;18.426;2024-02-26T01:59:59;10.35;;;6.00;;
77105;SDS011;66057;54.718;18.426;2024-02-26T02:02:24;16.10;;;7.45;;
77105;SDS011;66057;54.718;18.426;2024-02-26T02:04:50;16.88;;;8.15;;
77105;SDS011;66057;54.718;18.426;2024-02-26T02:07:16;13.65;;;7.85;;
77105;SDS011;66057;54.718;18.426;2024-02-26T02:09:42;12.65;;;8.20;;
77105;SDS011;66057;54.718;18.426;2024-02-26T02:12:08;14.90;;;7.40;;
77105;SDS011;66057;54.718;18.426;2024-02-26T02:14:33;17.38;;;9.32;;
77105;SDS011;66057;54.718;18.426;2024-02-26T02:16:59;15.57;;;8.18;;
77105;SDS011;66057;54.718;18.426;2024-02-26T02:19:24;11.38;;;8.38;;
77105;SDS011;66057;54.718;18.426;2024-02-26T02:21:50;10.18;;;6.53;;
77105;SDS011;66057;54.718;18.426;2024-02-26T02:24:15;13.32;;;8.38;;
77105;SDS011;66057;54.718;18.426;2024-02-26T02:26:41;17.30;;;8.40;;
77105;SDS011;66057;54.718;18.426;2024-02-26T02:29:06;14.20;;;7.55;;
77105;SDS011;66057;54.718;18.426;2024-02-26T02:31:32;15.02;;;5.75;;
77105;SDS011;66057;54.718;18.426;2024-02-26T02:33:58;7.32;;;5.25;;
77105;SDS011;66057;54.718;18.426;2024-02-26T02:36:23;8.93;;;5.35;;
77105;SDS011;66057;54.718;18.426;2024-02-26T02:38:49;11.48;;;5.60;;
77105;SDS011;66057;54.718;18.426;2024-02-26T02:41:18;6.85;;;4.60;;
77105;SDS011;66057;54.718;18.426;2024-02-26T02:43:43;6.43;;;4.82;;
77105;SDS011;66057;54.718;18.426;2024-02-26T02:46:09;9.38;;;5.38;;
77105;SDS011;66057;54.718;18.426;2024-02-26T02:48:37;13.02;;;2.97;;
77105;SDS011;66057;54.718;18.426;2024-02-26T02:51:02;6.25;;;3.95;;
77105;SDS011;66057;54.718;18.426;2024-02-26T02:53:28;5.50;;;2.50;;
77105;SDS011;66057;54.718;18.426;2024-02-26T02:55:53;6.68;;;4.00;;
77105;SDS011;66057;54.718;18.426;2024-02-26T02:58:19;4.07;;;2.55;;
77105;SDS011;66057;54.718;18.426;2024-02-26T03:00:44;4.45;;;2.97;;
77105;SDS011;66057;54.718;18.426;2024-02-26T03:03:10;7.07;;;4.40;;
77105;SDS011;66057;54.718;18.426;2024-02-26T03:05:36;8.93;;;5.05;;
77105;SDS011;66057;54.718;18.426;2024-02-26T03:08:01;5.28;;;4.18;;
77105;SDS011;66057;54.718;18.426;2024-02-26T03:10:27;6.25;;;3.80;;
77105;SDS011;66057;54.718;18.426;2024-02-26T03:12:53;9.70;;;5.20;;
77105;SDS011;66057;54.718;18.426;2024-02-26T03:15:19;8.90;;;5.22;;
77105;SDS011;66057;54.718;18.426;2024-02-26T03:17:44;8.18;;;4.60;;
77105;SDS011;66057;54.718;18.426;2024-02-26T03:20:10;2.03;;;1.40;;
77105;SDS011;66057;54.718;18.426;2024-02-26T03:22:35;8.15;;;5.30;;
77105;SDS011;66057;54.718;18.426;2024-02-26T03:25:01;6.35;;;5.15;;
77105;SDS011;66057;54.718;18.426;2024-02-26T03:27:27;4.25;;;2.72;;
77105;SDS011;66057;54.718;18.426;2024-02-26T03:29:52;10.50;;;5.93;;
77105;SDS011;66057;54.718;18.426;2024-02-26T03:32:18;13.40;;;5.65;;
77105;SDS011;66057;54.718;18.426;2024-02-26T03:34:43;10.52;;;6.05;;
77105;SDS011;66057;54.718;18.426;2024-02-26T03:37:10;8.30;;;4.03;;
77105;SDS011;66057;54.718;18.426;2024-02-26T03:39:36;8.15;;;5.57;;
77105;SDS011;66057;54.718;18.426;2024-02-26T03:42:02;11.50;;;5.72;;
77105;SDS011;66057;54.718;18.426;2024-02-26T03:44:28;9.70;;;4.50;;
77105;SDS011;66057;54.718;18.426;2024-02-26T03:46:53;10.60;;;5.60;;
77105;SDS011;66057;54.718;18.426;2024-02-26T03:49:19;13.05;;;5.13;;
77105;SDS011;66057;54.718;18.426;2024-02-26T03:51:44;12.93;;;7.50;;
77105;SDS011;66057;54.718;18.426;2024-02-26T03:54:10;10.15;;;5.88;;
77105;SDS011;66057;54.718;18.426;2024-02-26T03:56:35;8.73;;;4.85;;
77105;SDS011;66057;54.718;18.426;2024-02-26T03:59:01;10.55;;;5.45;;
77105;SDS011;66057;54.718;18.426;2024-02-26T04:01:27;11.70;;;6.25;;
77105;SDS011;66057;54.718;18.426;2024-02-26T04:03:54;7.30;;;4.65;;
77105;SDS011;66057;54.718;18.426;2024-02-26T04:06:19;7.97;;;4.45;;
77105;SDS011;66057;54.718;18.426;2024-02-26T04:08:46;7.70;;;4.63;;
77105;SDS011;66057;54.718;18.426;2024-02-26T04:11:12;9.82;;;5.10;;
77105;SDS011;66057;54.718;18.426;2024-02-26T04:13:38;10.80;;;4.82;;
77105;SDS011;66057;54.718;18.426;2024-02-26T04:16:06;7.95;;;3.95;;
77105;SDS011;66057;54.718;18.426;2024-02-26T04:18:32;7.05;;;4.28;;
77105;SDS011;66057;54.718;18.426;2024-02-26T04:20:58;15.40;;;4.43;;
77105;SDS011;66057;54.718;18.426;2024-02-26T04:23:24;5.78;;;1.95;;
77105;SDS011;66057;54.718;18.426;2024-02-26T04:25:49;9.18;;;4.38;;
77105;SDS011;66057;54.718;18.426;2024-02-26T04:28:15;11.80;;;4.95;;
77105;SDS011;66057;54.718;18.426;2024-02-26T04:30:41;11.38;;;7.03;;
77105;SDS011;66057;54.718;18.426;2024-02-26T04:33:07;10.90;;;5.38;;
77105;SDS011;66057;54.718;18.426;2024-02-26T04:35:32;10.25;;;5.82;;
77105;SDS011;66057;54.718;18.426;2024-02-26T04:37:58;11.95;;;5.93;;
77105;SDS011;66057;54.718;18.426;2024-02-26T04:40:23;10.30;;;6.22;;
77105;SDS011;66057;54.718;18.426;2024-02-26T04:42:49;9.02;;;6.25;;
77105;SDS011;66057;54.718;18.426;2024-02-26T04:45:15;13.07;;;6.10;;
77105;SDS011;66057;54.718;18.426;2024-02-26T04:47:41;11.70;;;5.93;;
77105;SDS011;66057;54.718;18.426;2024-02-26T04:50:06;7.72;;;5.10;;
77105;SDS011;66057;54.718;18.426;2024-02-26T04:52:32;12.00;;;6.25;;
77105;SDS011;66057;54.718;18.426;2024-02-26T04:54:57;13.38;;;9.02;;
77105;SDS011;66057;54.718;18.426;2024-02-26T04:57:25;10.00;;;6.03;;
77105;SDS011;66057;54.718;18.426;2024-02-26T04:59:51;9.73;;;6.93;;
77105;SDS011;66057;54.718;18.426;2024-02-26T05:02:17;7.25;;;5.05;;
77105;SDS011;66057;54.718;18.426;2024-02-26T05:04:43;12.75;;;6.25;;
77105;SDS011;66057;54.718;18.426;2024-02-26T05:07:08;12.45;;;6.70;;
77105;SDS011;66057;54.718;18.426;2024-02-26T05:09:35;13.60;;;5.78;;
77105;SDS011;66057;54.718;18.426;2024-02-26T05:12:01;12.90;;;6.38;;
77105;SDS011;66057;54.718;18.426;2024-02-26T05:14:27;13.18;;;7.03;;
77105;SDS011;66057;54.718;18.426;2024-02-26T05:16:53;19.08;;;8.32;;
77105;SDS011;66057;54.718;18.426;2024-02-26T05:19:18;23.10;;;10.75;;
77105;SDS011;66057;54.718;18.426;2024-02-26T05:21:44;19.05;;;10.52;;
77105;SDS011;66057;54.718;18.426;2024-02-26T05:24:09;22.90;;;10.27;;
77105;SDS011;66057;54.718;18.426;2024-02-26T05:26:35;20.13;;;11.05;;
77105;SDS011;66057;54.718;18.426;2024-02-26T05:29:01;21.55;;;12.15;;
77105;SDS011;66057;54.718;18.426;2024-02-26T05:31:27;21.02;;;11.27;;
77105;SDS011;66057;54.718;18.426;2024-02-26T05:33:54;24.52;;;12.55;;
77105;SDS011;66057;54.718;18.426;2024-02-26T05:36:20;21.25;;;10.73;;
77105;SDS011;66057;54.718;18.426;2024-02-26T05:38:46;20.30;;;11.25;;
77105;SDS011;66057;54.718;18.426;2024-02-26T05:41:12;19.83;;;11.50;;
77105;SDS011;66057;54.718;18.426;2024-02-26T05:43:37;27.15;;;16.70;;
77105;SDS011;66057;54.718;18.426;2024-02-26T05:46:03;26.75;;;14.75;;
77105;SDS011;66057;54.718;18.426;2024-02-26T05:48:29;25.25;;;11.93;;
77105;SDS011;66057;54.718;18.426;2024-02-26T05:50:55;27.33;;;13.25;;
77105;SDS011;66057;54.718;18.426;2024-02-26T05:53:20;25.23;;;11.25;;
77105;SDS011;66057;54.718;18.426;2024-02-26T05:55:46;28.55;;;11.40;;
77105;SDS011;66057;54.718;18.426;2024-02-26T05:58:12;19.80;;;8.52;;
77105;SDS011;66057;54.718;18.426;2024-02-26T06:00:38;20.05;;;8.07;;
77105;SDS011;66057;54.718;18.426;2024-02-26T06:03:04;18.75;;;9.02;;
77105;SDS011;66057;54.718;18.426;2024-02-26T06:05:30;19.92;;;9.55;;
77105;SDS011;66057;54.718;18.426;2024-02-26T06:07:55;19.35;;;9.32;;
77105;SDS011;66057;54.718;18.426;2024-02-26T06:10:21;18.25;;;9.35;;
77105;SDS011;66057;54.718;18.426;2024-02-26T06:12:47;16.55;;;7.80;;
77105;SDS011;66057;54.718;18.426;2024-02-26T06:15:13;18.17;;;8.05;;
77105;SDS011;66057;54.718;18.426;2024-02-26T06:17:39;15.77;;;8.82;;
77105;SDS011;66057;54.718;18.426;2024-02-26T06:20:05;17.10;;;9.60;;
77105;SDS011;66057;54.718;18.426;2024-02-26T06:22:31;22.27;;;8.63;;
77105;SDS011;66057;54.718;18.426;2024-02-26T06:24:57;19.27;;;9.50;;
77105;SDS011;66057;54.718;18.426;2024-02-26T06:27:23;18.70;;;8.35;;
77105;SDS011;66057;54.718;18.426;2024-02-26T06:29:49;24.75;;;8.02;;
77105;SDS011;66057;54.718;18.426;2024-02-26T06:32:15;16.88;;;8.40;;
77105;SDS011;66057;54.718;18.426;2024-02-26T06:34:40;23.40;;;8.63;;
77105;SDS011;66057;54.718;18.426;2024-02-26T06:37:07;21.13;;;9.85;;
77105;SDS011;66057;54.718;18.426;2024-02-26T06:39:33;20.38;;;9.10;;
77105;SDS011;66057;54.718;18.426;2024-02-26T06:41:58;20.30;;;9.77;;
77105;SDS011;66057;54.718;18.426;2024-02-26T06:44:27;18.20;;;10.32;;
77105;SDS011;66057;54.718;18.426;2024-02-26T06:47:00;18.77;;;9.70;;
77105;SDS011;66057;54.718;18.426;2024-02-26T06:49:26;25.85;;;12.35;;
77105;SDS011;66057;54.718;18.426;2024-02-26T06:51:52;21.48;;;12.48;;
77105;SDS011;66057;54.718;18.426;2024-02-26T06:54:18;21.50;;;12.20;;
77105;SDS011;66057;54.718;18.426;2024-02-26T06:56:43;22.90;;;11.63;;
77105;SDS011;66057;54.718;18.426;2024-02-26T06:59:09;28.27;;;15.18;;
77105;SDS011;66057;54.718;18.426;2024-02-26T07:01:35;39.83;;;21.38;;
77105;SDS011;66057;54.718;18.426;2024-02-26T07:04:00;29.77;;;14.70;;
77105;SDS011;66057;54.718;18.426;2024-02-26T07:06:29;20.65;;;10.70;;
77105;SDS011;66057;54.718;18.426;2024-02-26T07:08:54;19.20;;;10.98;;
77105;SDS011;66057;54.718;18.426;2024-02-26T07:11:20;28.10;;;12.52;;
77105;SDS011;66057;54.718;18.426;2024-02-26T07:13:46;27.02;;;12.55;;
77105;SDS011;66057;54.718;18.426;2024-02-26T07:16:12;20.70;;;13.00;;
77105;SDS011;66057;54.718;18.426;2024-02-26T07:18:41;28.55;;;14.68;;
77105;SDS011;66057;54.718;18.426;2024-02-26T07:21:08;28.95;;;13.52;;
77105;SDS011;66057;54.718;18.426;2024-02-26T07:23:34;29.88;;;15.60;;
77105;SDS011;66057;54.718;18.426;2024-02-26T07:26:00;27.05;;;14.70;;
77105;SDS011;66057;54.718;18.426;2024-02-26T07:28:25;31.25;;;16.15;;
77105;SDS011;66057;54.718;18.426;2024-02-26T07:30:51;33.55;;;15.65;;
77105;SDS011;66057;54.718;18.426;2024-02-26T07:33:18;33.58;;;18.40;;
77105;SDS011;66057;54.718;18.426;2024-02-26T07:35:44;35.45;;;18.33;;
77105;SDS011;66057;54.718;18.426;2024-02-26T07:38:10;40.33;;;20.98;;
77105;SDS011;66057;54.718;18.426;2024-02-26T07:40:36;42.05;;;18.70;;
77105;SDS011;66057;54.718;18.426;2024-02-26T07:43:02;38.55;;;19.63;;
77105;SDS011;66057;54.718;18.426;2024-02-26T07:45:27;32.72;;;16.25;;
77105;SDS011;66057;54.718;18.426;2024-02-26T07:47:53;34.03;;;16.83;;
77105;SDS011;66057;54.718;18.426;2024-02-26T07:50:18;31.98;;;15.85;;
77105;SDS011;66057;54.718;18.426;2024-02-26T07:52:45;31.23;;;14.65;;
77105;SDS011;66057;54.718;18.426;2024-02-26T07:55:10;31.33;;;15.10;;
77105;SDS011;66057;54.718;18.426;2024-02-26T07:57:36;26.48;;;13.40;;
77105;SDS011;66057;54.718;18.426;2024-02-26T08:00:02;29.35;;;13.60;;
77105;SDS011;66057;54.718;18.426;2024-02-26T08:02:28;26.77;;;13.45;;
77105;SDS011;66057;54.718;18.426;2024-02-26T08:04:54;28.20;;;13.57;;
77105;SDS011;66057;54.718;18.426;2024-02-26T08:07:19;29.60;;;14.80;;
77105;SDS011;66057;54.718;18.426;2024-02-26T08:09:46;32.00;;;19.15;;
77105;SDS011;66057;54.718;18.426;2024-02-26T08:12:12;37.17;;;21.33;;
77105;SDS011;66057;54.718;18.426;2024-02-26T08:14:37;40.85;;;20.63;;
77105;SDS011;66057;54.718;18.426;2024-02-26T08:17:03;35.22;;;21.02;;
77105;SDS011;66057;54.718;18.426;2024-02-26T08:19:29;30.45;;;17.35;;
77105;SDS011;66057;54.718;18.426;2024-02-26T08:21:54;37.22;;;19.60;;
77105;SDS011;66057;54.718;18.426;2024-02-26T08:24:20;46.05;;;22.83;;
77105;SDS011;66057;54.718;18.426;2024-02-26T08:26:45;46.90;;;23.08;;
77105;SDS011;66057;54.718;18.426;2024-02-26T08:29:11;39.63;;;18.95;;
77105;SDS011;66057;54.718;18.426;2024-02-26T08:31:37;49.80;;;22.30;;
77105;SDS011;66057;54.718;18.426;2024-02-26T08:34:05;57.70;;;27.50;;
77105;SDS011;66057;54.718;18.426;2024-02-26T08:36:33;57.63;;;25.95;;
77105;SDS011;66057;54.718;18.426;2024-02-26T08:38:59;48.10;;;22.80;;
77105;SDS011;66057;54.718;18.426;2024-02-26T08:41:24;42.38;;;22.23;;
77105;SDS011;66057;54.718;18.426;2024-02-26T08:43:50;39.97;;;17.83;;
77105;SDS011;66057;54.718;18.426;2024-02-26T08:46:15;41.58;;;22.20;;
77105;SDS011;66057;54.718;18.426;2024-02-26T08:48:41;52.88;;;22.30;;
77105;SDS011;66057;54.718;18.426;2024-02-26T08:51:07;44.15;;;21.67;;
77105;SDS011;66057;54.718;18.426;2024-02-26T08:53:33;42.90;;;22.92;;
77105;SDS011;66057;54.718;18.426;2024-02-26T08:55:58;31.63;;;18.48;;
77105;SDS011;66057;54.718;18.426;2024-02-26T08:58:24;44.67;;;23.85;;
77105;SDS011;66057;54.718;18.426;2024-02-26T09:00:50;43.90;;;20.27;;
77105;SDS011;66057;54.718;18.426;2024-02-26T09:03:16;39.45;;;20.85;;
77105;SDS011;66057;54.718;18.426;2024-02-26T09:05:42;40.50;;;20.63;;
77105;SDS011;66057;54.718;18.426;2024-02-26T09:08:08;40.40;;;19.95;;
77105;SDS011;66057;54.718;18.426;2024-02-26T09:10:34;37.88;;;18.73;;
77105;SDS011;66057;54.718;18.426;2024-02-26T09:12:59;36.85;;;18.63;;
77105;SDS011;66057;54.718;18.426;2024-02-26T09:15:25;33.47;;;17.00;;
77105;SDS011;66057;54.718;18.426;2024-02-26T09:17:51;33.20;;;18.10;;
77105;SDS011;66057;54.718;18.426;2024-02-26T09:20:17;31.15;;;16.08;;
77105;SDS011;66057;54.718;18.426;2024-02-26T09:22:46;31.88;;;16.33;;
77105;SDS011;66057;54.718;18.426;2024-02-26T09:25:12;34.97;;;17.52;;
77105;SDS011;66057;54.718;18.426;2024-02-26T09:27:37;30.67;;;16.30;;
77105;SDS011;66057;54.718;18.426;2024-02-26T09:30:03;30.65;;;16.83;;
77105;SDS011;66057;54.718;18.426;2024-02-26T09:32:29;33.95;;;16.75;;
77105;SDS011;66057;54.718;18.426;2024-02-26T09:34:55;27.67;;;14.75;;
77105;SDS011;66057;54.718;18.426;2024-02-26T09:37:21;28.23;;;13.80;;
77105;SDS011;66057;54.718;18.426;2024-02-26T09:39:46;26.70;;;13.15;;
77105;SDS011;66057;54.718;18.426;2024-02-26T09:42:12;25.67;;;13.02;;
77105;SDS011;66057;54.718;18.426;2024-02-26T09:44:39;26.75;;;13.15;;
77105;SDS011;66057;54.718;18.426;2024-02-26T09:47:07;23.02;;;12.85;;
77105;SDS011;66057;54.718;18.426;2024-02-26T09:49:34;20.38;;;11.70;;
77105;SDS011;66057;54.718;18.426;2024-02-26T09:52:00;20.55;;;9.10;;
77105;SDS011;66057;54.718;18.426;2024-02-26T09:56:54;20.73;;;10.20;;
77105;SDS011;66057;54.718;18.426;2024-02-26T09:59:22;15.02;;;8.35;;
77105;SDS011;66057;54.718;18.426;2024-02-26T10:01:48;19.52;;;9.57;;
77105;SDS011;66057;54.718;18.426;2024-02-26T10:04:14;19.30;;;10.18;;
77105;SDS011;66057;54.718;18.426;2024-02-26T10:06:40;21.42;;;10.02;;
77105;SDS011;66057;54.718;18.426;2024-02-26T10:09:06;19.75;;;9.93;;
77105;SDS011;66057;54.718;18.426;2024-02-26T10:11:35;19.38;;;9.35;;
77105;SDS011;66057;54.718;18.426;2024-02-26T10:14:00;16.85;;;8.63;;
77105;SDS011;66057;54.718;18.426;2024-02-26T10:16:26;17.73;;;8.77;;
77105;SDS011;66057;54.718;18.426;2024-02-26T10:18:52;14.45;;;8.23;;
77105;SDS011;66057;54.718;18.426;2024-02-26T10:21:22;15.07;;;9.20;;
77105;SDS011;66057;54.718;18.426;2024-02-26T10:23:47;17.65;;;9.32;;
77105;SDS011;66057;54.718;18.426;2024-02-26T10:26:14;18.52;;;9.82;;
77105;SDS011;66057;54.718;18.426;2024-02-26T10:28:41;17.58;;;9.70;;
77105;SDS011;66057;54.718;18.426;2024-02-26T10:31:07;16.08;;;9.20;;
77105;SDS011;66057;54.718;18.426;2024-02-26T10:33:33;20.58;;;10.38;;
77105;SDS011;66057;54.718;18.426;2024-02-26T10:36:01;16.27;;;8.88;;
77105;SDS011;66057;54.718;18.426;2024-02-26T10:38:26;17.33;;;9.63;;
77105;SDS011;66057;54.718;18.426;2024-02-26T10:40:52;15.73;;;9.55;;
77105;SDS011;66057;54.718;18.426;2024-02-26T10:43:17;15.85;;;9.10;;
77105;SDS011;66057;54.718;18.426;2024-02-26T10:45:44;20.45;;;9.50;;
77105;SDS011;66057;54.718;18.426;2024-02-26T10:48:10;17.73;;;8.98;;
77105;SDS011;66057;54.718;18.426;2024-02-26T10:50:36;17.23;;;9.52;;
77105;SDS011;66057;54.718;18.426;2024-02-26T10:53:02;22.33;;;9.80;;
77105;SDS011;66057;54.718;18.426;2024-02-26T10:55:28;18.20;;;8.98;;
77105;SDS011;66057;54.718;18.426;2024-02-26T10:57:53;20.00;;;9.13;;
77105;SDS011;66057;54.718;18.426;2024-02-26T11:00:20;21.42;;;10.45;;
77105;SDS011;66057;54.718;18.426;2024-02-26T11:02:45;15.25;;;8.48;;
77105;SDS011;66057;54.718;18.426;2024-02-26T11:05:14;16.90;;;7.78;;
77105;SDS011;66057;54.718;18.426;2024-02-26T11:07:41;20.02;;;9.32;;
77105;SDS011;66057;54.718;18.426;2024-02-26T11:10:07;15.15;;;8.60;;
77105;SDS011;66057;54.718;18.426;2024-02-26T11:12:33;19.05;;;9.48;;
77105;SDS011;66057;54.718;18.426;2024-02-26T11:15:02;16.60;;;9.32;;
77105;SDS011;66057;54.718;18.426;2024-02-26T11:17:28;15.38;;;8.02;;
77105;SDS011;66057;54.718;18.426;2024-02-26T11:19:58;20.80;;;8.27;;
77105;SDS011;66057;54.718;18.426;2024-02-26T11:22:26;17.38;;;8.32;;
77105;SDS011;66057;54.718;18.426;2024-02-26T11:24:56;15.32;;;7.95;;
77105;SDS011;66057;54.718;18.426;2024-02-26T11:27:33;17.55;;;9.65;;
77105;SDS011;66057;54.718;18.426;2024-02-26T11:30:00;16.50;;;8.85;;
77105;SDS011;66057;54.718;18.426;2024-02-26T11:32:27;14.90;;;7.82;;
77105;SDS011;66057;54.718;18.426;2024-02-26T11:34:55;12.68;;;7.97;;
77105;SDS011;66057;54.718;18.426;2024-02-26T11:37:21;14.07;;;7.57;;
77105;SDS011;66057;54.718;18.426;2024-02-26T11:39:48;18.88;;;8.25;;
77105;SDS011;66057;54.718;18.426;2024-02-26T11:42:14;18.23;;;8.68;;
77105;SDS011;66057;54.718;18.426;2024-02-26T11:44:40;16.10;;;7.80;;
77105;SDS011;66057;54.718;18.426;2024-02-26T11:47:40;15.23;;;7.30;;
77105;SDS011;66057;54.718;18.426;2024-02-26T11:49:59;16.75;;;6.63;;
77105;SDS011;66057;54.718;18.426;2024-02-26T11:52:24;14.43;;;7.78;;
77105;SDS011;66057;54.718;18.426;2024-02-26T11:54:51;14.43;;;7.05;;
77105;SDS011;66057;54.718;18.426;2024-02-26T11:57:20;13.07;;;6.68;;
77105;SDS011;66057;54.718;18.426;2024-02-26T11:59:47;8.82;;;5.10;;
77105;SDS011;66057;54.718;18.426;2024-02-26T12:02:18;12.05;;;6.68;;
77105;SDS011;66057;54.718;18.426;2024-02-26T12:04:58;12.50;;;5.95;;
77105;SDS011;66057;54.718;18.426;2024-02-26T12:07:23;11.43;;;5.88;;
77105;SDS011;66057;54.718;18.426;2024-02-26T12:09:51;16.30;;;6.03;;
77105;SDS011;66057;54.718;18.426;2024-02-26T12:12:20;12.05;;;6.20;;
77105;SDS011;66057;54.718;18.426;2024-02-26T12:14:51;10.60;;;5.97;;
77105;SDS011;66057;54.718;18.426;2024-02-26T12:17:19;10.88;;;5.97;;
77105;SDS011;66057;54.718;18.426;2024-02-26T12:19:45;11.55;;;6.13;;
77105;SDS011;66057;54.718;18.426;2024-02-26T12:22:12;11.75;;;6.18;;
77105;SDS011;66057;54.718;18.426;2024-02-26T12:24:38;10.57;;;5.63;;
77105;SDS011;66057;54.718;18.426;2024-02-26T12:27:04;13.20;;;6.03;;
77105;SDS011;66057;54.718;18.426;2024-02-26T12:29:29;11.90;;;5.75;;
77105;SDS011;66057;54.718;18.426;2024-02-26T12:31:55;12.75;;;6.53;;
77105;SDS011;66057;54.718;18.426;2024-02-26T12:34:23;11.20;;;5.60;;
77105;SDS011;66057;54.718;18.426;2024-02-26T12:36:48;9.70;;;6.13;;
77105;SDS011;66057;54.718;18.426;2024-02-26T12:39:14;12.32;;;7.32;;
77105;SDS011;66057;54.718;18.426;2024-02-26T12:41:40;11.02;;;6.72;;
77105;SDS011;66057;54.718;18.426;2024-02-26T12:44:07;13.35;;;7.30;;
77105;SDS011;66057;54.718;18.426;2024-02-26T12:48:58;11.32;;;5.85;;
77105;SDS011;66057;54.718;18.426;2024-02-26T12:51:25;11.95;;;7.25;;
77105;SDS011;66057;54.718;18.426;2024-02-26T12:53:50;8.85;;;5.70;;
77105;SDS011;66057;54.718;18.426;2024-02-26T12:56:17;12.07;;;7.32;;
77105;SDS011;66057;54.718;18.426;2024-02-26T12:58:43;12.30;;;6.22;;
77105;SDS011;66057;54.718;18.426;2024-02-26T13:01:13;9.35;;;5.40;;
77105;SDS011;66057;54.718;18.426;2024-02-26T13:03:39;10.10;;;6.65;;
77105;SDS011;66057;54.718;18.426;2024-02-26T13:06:05;12.85;;;7.00;;
77105;SDS011;66057;54.718;18.426;2024-02-26T13:08:31;10.73;;;6.00;;
77105;SDS011;66057;54.718;18.426;2024-02-26T13:10:58;11.45;;;7.03;;
77105;SDS011;66057;54.718;18.426;2024-02-26T13:13:24;11.73;;;7.05;;
77105;SDS011;66057;54.718;18.426;2024-02-26T13:15:49;11.75;;;6.95;;
77105;SDS011;66057;54.718;18.426;2024-02-26T13:18:15;12.35;;;6.85;;
77105;SDS011;66057;54.718;18.426;2024-02-26T13:20:41;11.27;;;7.18;;
77105;SDS011;66057;54.718;18.426;2024-02-26T13:23:08;13.07;;;7.15;;
77105;SDS011;66057;54.718;18.426;2024-02-26T13:25:35;12.20;;;7.18;;
77105;SDS011;66057;54.718;18.426;2024-02-26T13:28:14;10.52;;;6.70;;
77105;SDS011;66057;54.718;18.426;2024-02-26T13:30:41;11.50;;;6.75;;
77105;SDS011;66057;54.718;18.426;2024-02-26T13:33:10;11.02;;;6.10;;
77105;SDS011;66057;54.718;18.426;2024-02-26T13:35:36;11.70;;;6.40;;
77105;SDS011;66057;54.718;18.426;2024-02-26T13:38:02;14.25;;;7.43;;
77105;SDS011;66057;54.718;18.426;2024-02-26T13:40:28;14.07;;;6.68;;
77105;SDS011;66057;54.718;18.426;2024-02-26T13:42:54;9.52;;;7.28;;
77105;SDS011;66057;54.718;18.426;2024-02-26T13:45:20;11.45;;;5.90;;
77105;SDS011;66057;54.718;18.426;2024-02-26T13:47:45;15.07;;;7.03;;
77105;SDS011;66057;54.718;18.426;2024-02-26T13:50:11;14.43;;;7.38;;
77105;SDS011;66057;54.718;18.426;2024-02-26T13:52:36;11.48;;;6.57;;
77105;SDS011;66057;54.718;18.426;2024-02-26T13:55:02;11.52;;;6.43;;
77105;SDS011;66057;54.718;18.426;2024-02-26T13:57:28;10.65;;;6.65;;
77105;SDS011;66057;54.718;18.426;2024-02-26T13:59:54;12.90;;;6.38;;
77105;SDS011;66057;54.718;18.426;2024-02-26T14:02:20;15.57;;;7.15;;
77105;SDS011;66057;54.718;18.426;2024-02-26T14:04:46;13.15;;;6.85;;
77105;SDS011;66057;54.718;18.426;2024-02-26T14:07:12;11.30;;;6.32;;
77105;SDS011;66057;54.718;18.426;2024-02-26T14:09:38;14.95;;;7.15;;
77105;SDS011;66057;54.718;18.426;2024-02-26T14:12:03;14.95;;;7.35;;
77105;SDS011;66057;54.718;18.426;2024-02-26T14:14:29;10.45;;;6.20;;
77105;SDS011;66057;54.718;18.426;2024-02-26T14:16:58;10.52;;;5.97;;
77105;SDS011;66057;54.718;18.426;2024-02-26T14:19:24;13.23;;;6.53;;